createdAt,value
2018-02-06T00:00:42.572Z,74.84
2018-02-06T00:03:12.632Z,75.00
2018-02-06T00:05:41.927Z,75.12
2018-02-06T00:08:11.409Z,75.16
2018-02-06T00:10:41.476Z,75.26
2018-02-06T00:13:10.833Z,75.58
2018-02-06T00:15:41.013Z,75.50
2018-02-06T00:18:10.263Z,75.77
2018-02-06T00:20:39.504Z,75.64
2018-02-06T00:23:10.687Z,75.81
2018-02-06T00:25:40.827Z,75.80
2018-02-06T00:28:10.106Z,75.48
2018-02-06T00:30:40.087Z,75.51
2018-02-06T00:33:09.332Z,75.14
2018-02-06T00:35:39.392Z,75.78
2018-02-06T00:38:08.623Z,75.86
2018-02-06T00:40:37.869Z,75.48
2018-02-06T00:43:07.060Z,75.64
2018-02-06T00:45:36.301Z,75.59
2018-02-06T00:48:05.510Z,75.88
2018-02-06T00:50:34.950Z,76.04
2018-02-06T00:53:04.282Z,75.87
2018-02-06T00:55:33.551Z,76.07
2018-02-06T00:58:02.802Z,76.07
2018-02-06T01:00:32.076Z,76.07
2018-02-06T01:03:01.317Z,76.17
2018-02-06T01:05:30.574Z,76.19
2018-02-06T01:07:59.775Z,75.92
2018-02-06T01:10:29.043Z,76.42
2018-02-06T01:12:58.296Z,76.25
2018-02-06T01:15:29.143Z,76.38
2018-02-06T01:17:58.379Z,76.38
2018-02-06T01:20:27.671Z,76.43
2018-02-06T01:22:56.913Z,76.56
2018-02-06T01:25:26.139Z,76.99
2018-02-06T01:27:56.149Z,77.03
2018-02-06T01:30:25.392Z,77.27
2018-02-06T01:32:54.640Z,77.37
2018-02-06T01:35:25.369Z,77.60
2018-02-06T01:37:54.664Z,77.55
2018-02-06T01:40:23.911Z,77.73
2018-02-06T01:42:53.912Z,78.09
2018-02-06T01:45:23.943Z,78.08
2018-02-06T01:47:53.941Z,78.23
2018-02-06T01:50:23.947Z,78.56
2018-02-06T01:52:53.355Z,78.77
2018-02-06T01:55:22.658Z,78.92
2018-02-06T01:57:52.653Z,79.14
2018-02-06T02:00:22.839Z,79.24
2018-02-06T02:02:52.085Z,79.28
2018-02-06T02:05:21.424Z,79.49
2018-02-06T02:07:50.659Z,79.89
2018-02-06T02:10:19.947Z,79.98
2018-02-06T02:12:49.177Z,79.80
2018-02-06T02:15:18.599Z,79.93
2018-02-06T02:17:47.883Z,80.28
2018-02-06T02:20:17.921Z,80.26
2018-02-06T02:22:47.159Z,80.23
2018-02-06T02:25:16.403Z,80.48
2018-02-06T02:27:46.427Z,80.40
2018-02-06T02:30:15.689Z,80.42
2018-02-06T02:32:44.915Z,80.46
2018-02-06T02:35:15.043Z,80.72
2018-02-06T02:37:44.267Z,80.80
2018-02-06T02:40:13.521Z,80.95
2018-02-06T04:39:53.603Z,83.65
2018-02-06T04:42:22.833Z,83.68
2018-02-06T04:44:53.032Z,83.58
2018-02-06T04:47:23.060Z,83.71
2018-02-06T04:49:53.053Z,83.82
2018-02-06T04:52:22.303Z,83.90
2018-02-06T04:54:51.597Z,84.00
2018-02-06T04:57:20.900Z,83.93
2018-02-06T04:59:50.197Z,83.93
2018-02-06T05:02:19.463Z,83.95
2018-02-06T05:04:49.461Z,83.91
2018-02-06T05:07:18.702Z,83.75
2018-02-06T05:09:47.974Z,83.92
2018-02-06T05:12:17.237Z,83.63
2018-02-06T05:14:46.533Z,83.30
2018-02-06T05:17:15.776Z,83.41
2018-02-06T05:19:44.999Z,83.24
2018-02-06T05:22:15.041Z,83.23
2018-02-06T05:24:44.311Z,83.13
2018-02-06T05:27:13.502Z,83.02
2018-02-06T05:29:43.529Z,83.14
2018-02-06T05:32:12.749Z,83.10
2018-02-06T05:34:42.050Z,83.16
2018-02-06T05:37:11.218Z,83.14
2018-02-06T05:39:40.455Z,83.30
2018-02-06T05:42:09.678Z,83.16
2018-02-06T05:44:39.732Z,83.02
2018-02-06T05:47:08.962Z,82.97
2018-02-06T05:49:38.234Z,82.95
2018-02-06T05:52:08.062Z,82.87
2018-02-06T05:54:37.366Z,82.68
2018-02-06T05:57:06.662Z,82.97
2018-02-06T05:59:35.897Z,82.66
2018-02-06T06:02:05.369Z,82.76
2018-02-06T06:04:34.570Z,82.81
2018-02-06T06:07:03.848Z,82.85
2018-02-06T06:09:33.066Z,82.63
2018-02-06T06:12:02.410Z,82.82
2018-02-06T06:14:31.640Z,83.01
2018-02-06T06:17:00.910Z,82.92
2018-02-06T06:19:30.148Z,83.20
2018-02-06T06:21:59.353Z,82.97
2018-02-06T06:24:28.734Z,83.04
2018-02-06T06:26:57.968Z,83.30
2018-02-06T06:29:27.177Z,83.06
2018-02-06T06:31:56.521Z,83.22
2018-02-06T06:34:25.748Z,83.09
2018-02-06T06:36:55.067Z,83.18
2018-02-06T06:39:24.354Z,83.12
2018-02-06T06:41:53.582Z,83.52
2018-02-06T06:44:22.784Z,83.38
2018-02-06T06:46:52.027Z,83.40
2018-02-06T06:49:22.142Z,83.38
2018-02-06T06:51:52.091Z,83.57
2018-02-06T06:54:21.318Z,83.32
2018-02-06T06:56:50.535Z,83.59
2018-02-06T06:59:20.638Z,83.65
2018-02-06T07:01:52.310Z,83.57
2018-02-06T07:04:24.480Z,83.49
2018-02-06T07:06:53.839Z,83.57
2018-02-06T07:09:23.051Z,83.37
2018-02-06T07:11:52.290Z,83.43
2018-02-06T07:14:21.693Z,83.42
2018-02-06T07:16:50.918Z,83.28
2018-02-06T07:19:20.160Z,83.20
2018-02-06T07:21:50.158Z,83.22
2018-02-06T07:24:19.422Z,83.02
2018-02-06T07:26:48.626Z,83.22
2018-02-06T07:29:17.858Z,83.08
2018-02-06T07:31:47.080Z,83.21
2018-02-06T07:34:16.404Z,83.45
2018-02-06T07:36:45.604Z,83.23
2018-02-06T07:39:14.834Z,83.33
2018-02-06T07:41:44.069Z,83.33
2018-02-06T07:44:14.043Z,83.33
2018-02-06T07:46:43.334Z,83.11
2018-02-06T07:49:12.546Z,82.95
2018-02-06T07:51:41.905Z,82.96
2018-02-06T07:54:11.146Z,83.13
2018-02-06T07:56:40.462Z,83.18
2018-02-06T07:59:09.683Z,83.15
2018-02-06T08:01:38.997Z,83.24
2018-02-06T08:04:08.228Z,83.30
2018-02-06T08:06:37.451Z,83.07
2018-02-06T08:09:06.698Z,83.27
2018-02-06T08:11:35.934Z,83.14
2018-02-06T08:14:05.171Z,83.13
2018-02-06T08:16:34.527Z,83.01
2018-02-06T08:19:03.801Z,83.17
2018-02-06T08:21:33.098Z,83.31
2018-02-06T08:24:02.323Z,83.20
2018-02-06T08:26:31.531Z,82.96
2018-02-06T08:29:00.762Z,83.16
2018-02-06T08:31:29.994Z,82.56
2018-02-06T08:33:59.491Z,82.52
2018-02-06T08:36:28.734Z,82.35
2018-02-06T08:38:58.016Z,82.42
2018-02-06T08:41:27.226Z,82.23
2018-02-06T08:43:57.286Z,82.10
2018-02-06T08:46:26.603Z,81.86
2018-02-06T08:48:55.838Z,81.30
2018-02-06T08:51:25.055Z,80.88
2018-02-06T08:53:55.106Z,80.89
2018-02-06T08:56:24.325Z,80.74
2018-02-06T08:58:53.619Z,80.58
2018-02-06T09:01:22.928Z,80.84
2018-02-06T09:03:52.204Z,80.76
2018-02-06T09:06:21.413Z,80.62
2018-02-06T09:08:50.646Z,80.73
2018-02-06T09:11:19.897Z,80.48
2018-02-06T09:13:49.105Z,80.13
2018-02-06T09:16:18.337Z,79.78
2018-02-06T09:18:48.345Z,79.20
2018-02-06T09:21:17.579Z,78.81
2018-02-06T09:23:46.820Z,79.34
2018-02-06T09:26:16.055Z,79.17
2018-02-06T09:28:45.335Z,79.22
2018-02-06T09:31:16.141Z,78.52
2018-02-06T09:33:45.670Z,77.71
2018-02-06T09:36:14.891Z,76.94
2018-02-06T09:38:44.134Z,77.06
2018-02-06T09:41:13.463Z,76.38
2018-02-06T09:43:42.719Z,76.22
2018-02-06T09:46:11.937Z,76.24
2018-02-06T09:48:41.182Z,76.61
2018-02-06T09:51:11.959Z,76.89
2018-02-06T09:53:41.331Z,76.46
2018-02-06T09:56:10.549Z,76.66
2018-02-06T09:58:40.573Z,76.97
2018-02-06T10:01:09.828Z,76.25
2018-02-06T10:03:39.062Z,76.29
2018-02-06T10:06:08.319Z,75.75
2018-02-06T10:08:37.633Z,76.46
2018-02-06T10:11:06.831Z,76.19
2018-02-06T10:13:36.090Z,76.10
2018-02-06T10:16:05.350Z,76.07
2018-02-06T10:18:34.586Z,76.23
2018-02-06T10:21:03.831Z,76.63
2018-02-06T10:23:33.163Z,76.66
2018-02-06T10:26:02.394Z,76.69
2018-02-06T10:28:31.667Z,76.73
2018-02-06T10:31:00.951Z,77.23
2018-02-06T10:33:30.136Z,77.05
2018-02-06T10:36:00.134Z,77.14
2018-02-06T10:38:29.360Z,77.53
2018-02-06T10:40:58.613Z,77.23
2018-02-06T10:43:27.883Z,76.18
2018-02-06T10:45:57.166Z,75.92
2018-02-06T10:48:26.415Z,75.85
2018-02-06T10:50:55.638Z,75.59
2018-02-06T10:53:25.609Z,75.29
2018-02-06T10:55:54.856Z,75.23
2018-02-06T10:58:24.074Z,75.63
2018-02-06T11:00:53.330Z,75.82
2018-02-06T11:03:22.525Z,75.86
2018-02-06T11:05:51.869Z,76.50
2018-02-06T11:08:21.875Z,75.52
2018-02-06T11:10:51.200Z,75.78
2018-02-06T11:13:20.498Z,75.87
2018-02-06T11:15:49.720Z,75.46
2018-02-06T11:18:18.992Z,75.11
2018-02-06T11:20:48.965Z,74.99
2018-02-06T11:23:18.976Z,74.31
2018-02-06T11:25:48.178Z,74.53
2018-02-06T11:28:17.525Z,74.58
2018-02-06T11:30:46.843Z,74.92
2018-02-06T11:33:16.054Z,74.58
2018-02-06T11:35:45.280Z,75.03
2018-02-06T11:38:14.490Z,74.26
2018-02-06T11:40:44.478Z,74.91
2018-02-06T11:43:13.760Z,75.10
2018-02-06T11:45:42.979Z,75.42
2018-02-06T11:48:12.206Z,75.04
2018-02-06T11:50:41.484Z,75.16
2018-02-06T11:53:11.625Z,75.14
2018-02-06T11:55:40.856Z,74.28
2018-02-06T11:58:10.083Z,73.74
2018-02-06T12:00:39.318Z,74.04
2018-02-06T12:03:08.565Z,74.04
2018-02-06T12:05:37.782Z,73.47
2018-02-06T12:08:07.014Z,73.20
2018-02-06T12:10:36.248Z,72.59
2018-02-06T12:13:05.459Z,72.99
2018-02-06T12:15:35.587Z,73.16
2018-02-06T12:18:04.806Z,73.10
2018-02-06T12:20:34.782Z,73.64
2018-02-06T12:23:04.024Z,73.56
2018-02-06T12:25:33.301Z,73.11
2018-02-06T12:28:02.553Z,73.31
2018-02-06T12:30:31.762Z,72.49
2018-02-06T12:33:00.999Z,72.38
2018-02-06T12:35:30.249Z,73.25
2018-02-06T12:37:59.527Z,72.98
2018-02-06T12:40:29.835Z,72.11
2018-02-06T12:43:00.536Z,72.14
2018-02-06T12:45:29.733Z,72.14
2018-02-06T12:47:58.962Z,71.54
2018-02-06T12:50:28.326Z,71.28
2018-02-06T12:52:57.625Z,71.55
2018-02-06T12:55:26.849Z,71.28
2018-02-06T12:57:56.136Z,71.29
2018-02-06T13:00:25.437Z,71.44
2018-02-06T13:02:54.661Z,71.57
2018-02-06T13:05:24.691Z,71.92
2018-02-06T13:07:53.997Z,71.50
2018-02-06T13:10:23.221Z,71.44
2018-02-06T13:12:52.453Z,71.60
2018-02-06T13:15:21.957Z,72.00
2018-02-06T13:17:52.681Z,71.91
2018-02-06T13:20:22.762Z,71.74
2018-02-06T13:22:52.029Z,71.54
2018-02-06T13:25:22.035Z,71.90
2018-02-06T13:27:51.657Z,71.39
2018-02-06T13:30:20.906Z,71.51
2018-02-06T13:32:50.102Z,71.28
2018-02-06T13:35:19.351Z,70.91
2018-02-06T13:37:49.341Z,71.60
2018-02-06T13:40:18.834Z,71.68
2018-02-06T13:42:48.054Z,71.64
2018-02-06T13:45:17.288Z,71.39
2018-02-06T13:47:46.592Z,70.70
2018-02-06T13:50:16.523Z,70.57
2018-02-06T13:52:45.745Z,70.53
2018-02-06T13:55:14.990Z,71.12
2018-02-06T13:57:48.715Z,71.15
2018-02-06T14:00:17.964Z,70.84
2018-02-06T14:02:47.930Z,70.70
2018-02-06T14:05:17.166Z,70.69
2018-02-06T14:07:46.451Z,70.82
2018-02-06T14:10:15.725Z,70.73
2018-02-06T14:12:45.682Z,70.87
2018-02-06T14:15:14.936Z,71.27
2018-02-06T14:17:44.152Z,71.01
2018-02-06T14:20:13.399Z,71.20
2018-02-06T14:22:43.433Z,71.12
2018-02-06T14:25:12.663Z,70.98
2018-02-06T14:27:41.883Z,70.78
2018-02-06T14:30:11.958Z,71.34
2018-02-06T14:32:41.179Z,71.75
2018-02-06T14:35:10.390Z,71.24
2018-02-06T14:37:41.115Z,71.06
2018-02-06T14:40:10.322Z,70.94
2018-02-06T14:42:39.596Z,71.28
2018-02-06T14:45:08.887Z,71.41
2018-02-06T14:47:38.130Z,71.51
2018-02-06T14:50:07.319Z,70.94
2018-02-06T14:52:37.317Z,71.54
2018-02-06T14:55:06.536Z,71.36
2018-02-06T14:57:35.746Z,71.34
2018-02-06T15:00:05.740Z,70.95
2018-02-06T15:02:35.131Z,71.26
2018-02-06T15:05:04.344Z,71.17
2018-02-06T15:07:33.555Z,70.84
2018-02-06T15:10:02.796Z,71.02
2018-02-06T15:12:32.065Z,71.41
2018-02-06T15:15:02.073Z,71.62
2018-02-06T15:17:32.103Z,71.37
2018-02-06T15:20:01.310Z,71.28
2018-02-06T15:22:30.517Z,71.26
2018-02-06T15:24:59.917Z,71.35
2018-02-06T15:27:29.116Z,71.47
2018-02-06T15:29:58.354Z,71.35
2018-02-06T15:32:27.559Z,70.90
2018-02-06T15:34:56.772Z,71.14
2018-02-06T15:37:26.828Z,70.71
2018-02-06T15:39:56.051Z,70.96
2018-02-06T15:42:25.319Z,70.62
2018-02-06T15:44:55.285Z,70.86
2018-02-06T15:47:24.618Z,70.98
2018-02-06T15:49:53.834Z,71.29
2018-02-06T15:52:23.138Z,71.38
2018-02-06T15:54:52.331Z,71.22
2018-02-06T15:57:21.556Z,71.50
2018-02-06T15:59:50.777Z,71.52
2018-02-06T16:02:19.999Z,71.70
2018-02-06T16:04:50.132Z,71.63
2018-02-06T16:07:19.360Z,71.85
2018-02-06T16:09:48.578Z,71.78
2018-02-06T16:12:17.831Z,72.17
2018-02-06T16:14:47.199Z,72.00
2018-02-06T16:17:17.247Z,71.69
2018-02-06T16:19:46.460Z,71.84
2018-02-06T16:22:15.735Z,72.04
2018-02-06T16:24:45.784Z,72.16
2018-02-06T16:27:15.016Z,72.00
2018-02-06T16:29:44.258Z,72.06
2018-02-06T16:32:13.558Z,72.11
2018-02-06T16:34:42.811Z,72.13
2018-02-06T16:37:12.040Z,72.01
2018-02-06T16:39:41.259Z,71.92
2018-02-06T16:42:10.458Z,72.26
2018-02-06T16:44:40.636Z,72.55
2018-02-06T16:47:10.636Z,72.00
2018-02-06T16:49:39.917Z,72.34
2018-02-06T16:52:09.157Z,72.42
2018-02-06T16:54:39.178Z,72.21
2018-02-06T16:57:09.172Z,72.02
2018-02-06T16:59:38.390Z,72.01
2018-02-06T17:02:08.348Z,72.12
2018-02-06T17:04:37.579Z,72.14
2018-02-06T17:07:06.775Z,72.22
2018-02-06T17:09:35.994Z,72.34
2018-02-06T17:12:05.284Z,72.42
2018-02-06T17:14:35.334Z,72.15
2018-02-06T17:17:05.333Z,72.23
2018-02-06T17:19:35.326Z,72.47
2018-02-06T17:22:04.624Z,72.50
2018-02-06T17:24:33.859Z,72.63
2018-02-06T17:27:03.847Z,72.99
2018-02-06T17:29:33.883Z,73.09
2018-02-06T17:32:03.208Z,73.07
2018-02-06T17:34:32.582Z,73.13
2018-02-06T17:37:01.990Z,73.37
2018-02-06T17:39:31.426Z,73.29
2018-02-06T17:42:00.635Z,73.34
2018-02-06T17:44:29.881Z,73.08
2018-02-06T17:46:59.854Z,73.60
2018-02-06T17:49:30.000Z,73.50
2018-02-06T17:51:59.360Z,73.49
2018-02-06T17:54:28.586Z,73.53
2018-02-06T17:56:57.810Z,73.67
2018-02-06T17:59:27.811Z,73.35
2018-02-06T18:01:57.046Z,73.48
2018-02-06T18:04:26.279Z,73.47
2018-02-06T18:06:55.511Z,73.66
2018-02-06T18:09:25.840Z,73.72
2018-02-06T18:11:55.834Z,73.17
2018-02-06T18:14:25.998Z,73.26
2018-02-06T18:16:55.223Z,73.59
2018-02-06T18:19:24.492Z,73.45
2018-02-06T18:21:54.482Z,73.68
2018-02-06T18:24:23.702Z,73.57
2018-02-06T18:26:52.944Z,73.88
2018-02-06T18:29:22.275Z,73.95
2018-02-06T18:31:51.676Z,73.75
2018-02-06T18:34:20.871Z,73.88
2018-02-06T18:36:50.883Z,74.33
2018-02-06T18:39:20.103Z,74.13
2018-02-06T18:41:49.353Z,74.26
2018-02-06T18:44:18.572Z,74.16
2018-02-06T18:46:48.085Z,74.21
2018-02-06T18:49:17.317Z,74.27
2018-02-06T18:51:47.387Z,74.29
2018-02-06T18:54:16.602Z,74.76
2018-02-06T18:56:46.603Z,75.02
2018-02-06T18:59:15.849Z,75.04
2018-02-06T19:01:45.804Z,74.88
2018-02-06T19:04:15.041Z,75.06
2018-02-06T19:06:44.534Z,74.57
2018-02-06T19:09:13.755Z,74.87
2018-02-06T19:11:42.967Z,74.79
2018-02-06T19:14:12.327Z,74.92
2018-02-06T19:16:41.552Z,74.53
2018-02-06T19:19:11.553Z,74.32
2018-02-06T19:21:40.767Z,74.10
2018-02-06T19:24:10.028Z,74.12
2018-02-06T19:26:39.255Z,74.14
2018-02-06T19:29:09.375Z,74.03
2018-02-06T19:31:38.628Z,73.88
2018-02-06T19:34:07.858Z,74.03
2018-02-06T19:36:38.017Z,73.92
2018-02-06T19:39:07.241Z,73.90
2018-02-06T19:41:36.467Z,73.75
2018-02-06T19:44:05.743Z,74.10
2018-02-06T19:46:34.982Z,73.85
2018-02-06T19:49:04.216Z,73.87
2018-02-06T19:51:33.535Z,73.75
2018-02-06T19:54:02.754Z,73.99
2018-02-06T19:56:33.499Z,73.66
2018-02-06T19:59:02.825Z,74.17
2018-02-06T20:01:32.226Z,74.05
2018-02-06T20:04:01.477Z,73.72
2018-02-06T20:06:30.675Z,73.71
2018-02-06T20:08:59.876Z,73.96
2018-02-06T20:11:29.097Z,73.67
2018-02-06T20:13:59.164Z,73.95
2018-02-06T20:16:28.454Z,73.58
2018-02-06T20:18:57.712Z,73.82
2018-02-06T20:21:27.708Z,73.78
2018-02-06T20:23:57.100Z,73.42
2018-02-06T20:26:26.444Z,73.57
2018-02-06T20:28:56.564Z,73.90
2018-02-06T20:31:25.771Z,73.56
2018-02-06T20:33:55.046Z,73.92
2018-02-06T20:36:24.298Z,73.95
2018-02-06T20:38:53.534Z,73.61
2018-02-06T20:41:22.790Z,73.87
2018-02-06T20:43:53.896Z,74.07
2018-02-06T20:46:26.357Z,74.34
2018-02-06T20:48:56.391Z,74.40
2018-02-06T20:51:26.521Z,74.37
2018-02-06T20:53:55.742Z,74.26
2018-02-06T20:56:24.997Z,74.52
2018-02-06T20:58:54.231Z,74.67
2018-02-06T21:01:23.568Z,74.75
2018-02-06T21:03:52.789Z,74.55
2018-02-06T21:06:22.796Z,74.86
2018-02-06T21:08:52.031Z,75.07
2018-02-06T21:11:21.252Z,75.18
2018-02-06T21:13:50.487Z,74.93
2018-02-06T21:16:19.838Z,75.35
2018-02-06T21:18:49.035Z,75.22
2018-02-06T21:21:18.259Z,75.49
2018-02-06T21:23:48.986Z,75.33
2018-02-06T21:26:18.398Z,75.37
2018-02-06T21:28:47.683Z,75.23
2018-02-06T21:31:16.933Z,75.38
2018-02-06T21:33:46.190Z,75.60
2018-02-06T21:36:15.488Z,75.60
2018-02-06T21:38:44.710Z,75.62
2018-02-06T21:41:13.909Z,75.45
2018-02-06T21:43:43.912Z,75.54
2018-02-06T21:46:13.941Z,75.98
2018-02-06T21:48:43.167Z,76.13
2018-02-06T21:51:12.552Z,76.14
2018-02-06T21:53:42.593Z,76.02
2018-02-06T21:56:11.797Z,75.63
2018-02-06T21:58:41.030Z,75.81
2018-02-06T22:01:10.294Z,75.48
2018-02-06T22:03:39.502Z,75.55
2018-02-06T22:06:08.742Z,76.00
2018-02-06T22:08:38.756Z,75.83
2018-02-06T22:11:07.990Z,76.04
2018-02-06T22:13:38.013Z,76.02
2018-02-06T22:16:07.244Z,75.84
2018-02-06T22:18:38.134Z,75.59
2018-02-06T22:21:07.348Z,75.88
2018-02-06T22:23:36.567Z,75.84
2018-02-06T22:26:05.798Z,75.79
2018-02-06T22:28:35.000Z,76.08
2018-02-06T22:31:04.267Z,75.98
2018-02-06T22:33:33.468Z,75.96
2018-02-06T22:36:02.702Z,75.93
2018-02-06T22:38:32.001Z,75.90
2018-02-06T22:41:01.986Z,76.03
2018-02-06T22:43:31.190Z,76.21
2018-02-06T22:46:01.182Z,76.31
2018-02-06T22:48:30.398Z,76.37
2018-02-06T22:51:00.628Z,76.49
2018-02-06T22:53:29.844Z,76.45
2018-02-06T22:55:59.839Z,77.43
2018-02-06T22:58:29.034Z,77.01
2018-02-06T23:00:59.051Z,77.19
2018-02-06T23:03:28.342Z,77.10
2018-02-06T23:05:57.587Z,76.97
2018-02-06T23:08:27.023Z,76.88
2018-02-06T23:10:56.228Z,76.91
2018-02-06T23:13:25.446Z,76.86
2018-02-06T23:15:54.671Z,76.59
2018-02-06T23:18:24.671Z,77.14
2018-02-06T23:20:53.903Z,77.03
2018-02-06T23:23:23.887Z,76.63
2018-02-06T23:25:53.897Z,76.82
2018-02-06T23:28:24.735Z,76.63
2018-02-06T23:30:56.550Z,76.64
2018-02-06T23:33:25.779Z,76.66
2018-02-06T23:35:55.280Z,76.11
2018-02-06T23:38:24.512Z,76.19
2018-02-06T23:40:54.894Z,76.38
2018-02-06T23:43:24.135Z,76.29
2018-02-06T23:45:54.135Z,76.42
2018-02-06T23:48:23.346Z,76.46
2018-02-06T23:50:53.351Z,76.62
2018-02-06T23:53:22.673Z,76.31
2018-02-06T23:55:51.887Z,75.71
2018-02-06T23:58:21.115Z,76.13
